Historyczne dane pomiarowe

Dodano dane terminowe – wersja testowa.

Dane z okresu 1951-2019

Wersja bazy: 1.34 [2019-03-16, lista zmian], aktualizacja planowana na 2019-04-15

Dane meteo z obszaru Polski uzyskane na podstawie danych udostępnionych przez Instytut Meteorologii i Gospodarki Wodnej – Państwowy Instytut Badawczy.

 

Wybierz Datę:    

       

TemperaturaWilgotnośćWiatrCiśnienieOpadyŚniegCzas trwania zjawisk
 Stacja t tx tn tng RH VA  wxwx mslp ppp RRR   cm mm wxwxwxwxwxwxwx
1999-08-14 16.9 20.8 13.8- 84.0- 5.3 2.0---- 0.0------------
1999-08-13 16.4 19.1 14.1- 85.5- 6.7 5.3---- 2.3------------
1999-08-12 18.0 22.0 14.8- 79.8- 4.7 4.3---- 0.5------------
1999-08-11 19.1 21.8 15.6- 84.8- 7.3 5.0---- 6.3------------
1999-08-10 20.1 24.6 16.1- 86.3- 6.3 4.7---- 3.6------------
1999-08-09 22.3 28.1 17.7- 81.5- 5.3 3.3---- 9.0------------
1999-08-08 18.3 22.5 15.4- 92.3- 7.7 2.3---- 5.3------------
1999-08-07 22.0 25.5 18.9- 80.5- 2.7 2.3---- 2.0------------
1999-08-06 22.1 28.1 16.7- 63.0- 4.3 1.0---- 0.0------------
1999-08-05 20.9 27.1 13.5- 72.0- 3.7 1.0---- 0.0------------
1999-08-04 20.1 25.3 13.7- 78.3- 2.7 1.3---- 0.0------------
1999-08-03 19.9 24.8 14.1- 69.5- 4.0 1.7---- 0.0------------
1999-08-02 19.3 24.5 13.8- 64.3- 0.3 2.7---- 0.0------------
1999-08-01 20.3 25.0 14.1- 67.0- 1.7 3.0---- 0.0------------
1999-07-31 20.5 24.2 16.4- 69.3- 1.0 2.3---- 0.0------------
1999-07-30 19.6 23.1 16.1- 70.3- 0.7 2.7---- 0.0------------
1999-07-29 20.0 22.9 15.6- 72.5- 0.7 2.3---- 0.0------------
1999-07-28 19.1 22.5 14.2- 68.5- 1.0 5.0---- 0.0------------
1999-07-27 18.3 20.8 14.8- 64.8- 3.7 4.0---- 0.0------------
1999-07-26 17.9 20.5 16.7- 86.3- 7.3 2.7---- 1.3------------
1999-07-25 20.0 22.7 17.7- 77.8- 6.0 3.0---- 14.0------------
1999-07-24 18.4 22.0 14.7- 77.5- 6.3 5.0---- 0.0------------
1999-07-23 19.1 23.5 14.7- 71.0- 5.3 4.3---- 0.0------------
1999-07-22 18.6 21.4 15.1- 70.8- 5.0 3.0---- 0.0------------
1999-07-21 22.7 28.6 19.1- 70.3- 4.3 3.3---- 28.0------------
1999-07-20 23.6 30.8 15.0- 60.8- 1.3 2.7---- 0.6------------
1999-07-19 20.4 23.4 16.4- 75.3- 2.0 1.7---- 0.0------------
1999-07-18 19.5 26.5 13.7- 73.3- 6.7 0.7---- 0.0------------
1999-07-17 17.8 21.5 14.0- 69.5- 4.3 3.3---- 5.9------------
1999-07-16 18.0 21.4 14.0- 67.0- 3.7 3.3---- 0.0------------
1999-07-15 18.7 20.6 17.5- 76.0- 6.7 6.7---- 0.0------------
1999-07-14 22.0 27.5 19.1- 79.0- 7.0 5.3---- 1.4------------
1999-07-13 24.4 30.1 18.5- 54.5- 3.7 2.0---- 0.0------------
1999-07-12 23.2 29.8 14.5- 59.3- 3.0 1.7---- 0.0------------
1999-07-11 22.8 28.7 14.2- 58.8- 0.3 1.0---- 0.0------------
1999-07-10 19.9 26.5 13.5- 53.8- 0.7 3.7---- 0.0------------
1999-07-09 17.8 21.1 13.4- 72.3- 1.3 7.7---- 0.0------------
1999-07-08 18.1 20.9 14.4- 72.5- 7.3 4.3---- 0.0------------
1999-07-07 18.5 22.2 15.6- 71.5- 7.0 4.7---- 0.0------------
1999-07-06 23.7 28.7 17.8- 54.0- 4.0 6.0---- 2.9------------
1999-07-05 24.0 30.0 17.2- 56.3- 3.3 3.3---- 4.4------------
1999-07-04 23.9 29.8 16.5- 59.0- 5.7 4.7---- 0.0------------
1999-07-03 23.0 28.6 15.3- 64.5- 4.7 3.0---- 0.0------------
1999-07-02 18.0 20.9 15.9- 71.8- 5.3 2.7---- 0.0------------
1999-07-01 20.4 26.2 15.8- 77.8- 5.3 2.3---- 24.6------------
1999-06-30 20.7 25.4 14.3- 65.3- 3.0 2.0---- 0.0------------
1999-06-29 20.9 28.3 16.9- 70.3- 2.3 2.3---- 0.0------------
1999-06-28 23.3 29.6 14.9- 54.3- 2.3 2.0---- 4.2------------
1999-06-27 21.2 27.3 13.1- 55.8- 3.7 4.7---- 0.0------------
1999-06-26 15.2 20.5 9.5- 70.3- 6.0 3.3---- 0.0------------
1999-06-25 14.3 17.1 11.2- 79.0- 5.0 2.0---- 0.3------------
1999-06-24 14.8 17.3 12.6- 81.0- 5.7 4.3---- 1.8------------
1999-06-23 13.3 15.3 11.7- 87.0- 7.7 11.0---- 7.1------------
1999-06-22 16.1 17.0 15.2- 77.0- 8.0 12.0---- 22.7------------
1999-06-21 18.9 23.0 15.9- 72.0- 4.3 6.3---- 0.0------------
1999-06-20 22.0 30.8 17.1- 74.0- 5.7 2.7---- 0.0------------
1999-06-19 20.6 23.8 16.5- 86.5- 6.0 2.0---- 0.8------------
1999-06-18 18.3 22.0 13.9- 76.0- 5.0 1.7---- 3.7------------
1999-06-17 18.3 21.1 15.7- 81.0- 5.7 2.0---- 0.9------------
1999-06-16 17.7 20.2 15.3- 79.5- 4.7 2.3---- 0.0------------
699.6 ms

 

Źródłem pochodzenia danych jest Instytut Meteorologii i Gospodarki Wodnej – Państwowy Instytut Badawczy. Dane Instytutu Meteorologii i Gospodarki Wodnej – Państwowego Instytutu Badawczego zostały przetworzone.

Dane źródłowe można odnaleźć na stronie https://dane.imgw.pl